Time;durP1;ratioP1;P1;durP2;ratioP2;P2;SDS_P1;SDS_P2;PMS_P1;PMS_P2;Temp;Humidity;BMP_temperature;BMP_pressure;BME280_temperature;BME280_humidity;BME280_pressure;Samples;Min_cycle;Max_cycle;Signal;HPM_P1;HPM_P2
2024/01/24 00:01:37;;;;;;;10.53;2.23;;;5.40;99.90;;;;;;5095365;27;20708;-53
2024/01/24 00:04:02;;;;;;;9.23;3.00;;;5.30;99.90;;;;;;5106629;27;20224;-54
2024/01/24 00:06:28;;;;;;;9.03;3.07;;;5.40;99.90;;;;;;5086647;27;20193;-53
2024/01/24 00:08:53;;;;;;;11.87;2.80;;;5.30;99.90;;;;;;5100994;27;20207;-53
2024/01/24 00:11:19;;;;;;;8.77;2.50;;;5.40;99.90;;;;;;5097342;27;20568;-53
2024/01/24 00:13:44;;;;;;;7.40;2.13;;;5.40;99.90;;;;;;5104503;27;20274;-54
2024/01/24 00:16:10;;;;;;;10.80;3.20;;;5.40;99.90;;;;;;5100776;27;20859;-53
2024/01/24 00:18:35;;;;;;;9.73;3.10;;;5.40;99.90;;;;;;5097212;27;20192;-54
2024/01/24 00:21:01;;;;;;;7.93;2.67;;;5.40;99.90;;;;;;5101762;27;20204;-53
2024/01/24 00:23:27;;;;;;;9.10;3.17;;;5.40;99.90;;;;;;5083568;28;20191;-53
2024/01/24 00:25:52;;;;;;;6.20;2.73;;;5.40;99.90;;;;;;5102747;27;20283;-60
2024/01/24 00:28:18;;;;;;;9.00;3.00;;;5.40;99.90;;;;;;5097888;27;20274;-53
2024/01/24 00:30:44;;;;;;;6.80;2.43;;;5.30;99.90;;;;;;5108797;27;20217;-54
2024/01/24 00:33:10;;;;;;;7.33;2.50;;;5.40;99.90;;;;;;5091893;27;20275;-54
2024/01/24 00:35:36;;;;;;;4.20;2.73;;;5.40;99.90;;;;;;5091777;27;20205;-52
2024/01/24 00:38:01;;;;;;;12.03;3.47;;;5.40;99.90;;;;;;5095161;27;20203;-53
2024/01/24 00:40:27;;;;;;;12.93;3.70;;;5.40;99.90;;;;;;5099584;27;20207;-58
2024/01/24 00:42:52;;;;;;;8.53;2.53;;;5.40;99.90;;;;;;5103632;27;20573;-53
2024/01/24 00:45:18;;;;;;;6.30;2.90;;;5.40;99.90;;;;;;5075479;28;20279;-53
2024/01/24 00:47:44;;;;;;;8.37;3.27;;;5.40;99.90;;;;;;5098013;27;20202;-57
2024/01/24 00:50:09;;;;;;;8.57;2.63;;;5.50;99.90;;;;;;5065665;28;20213;-53
2024/01/24 00:52:35;;;;;;;9.73;2.60;;;5.60;99.90;;;;;;5092734;27;20270;-53
2024/01/24 00:55:00;;;;;;;9.23;3.17;;;5.60;99.90;;;;;;5074909;28;20192;-53
2024/01/24 00:57:26;;;;;;;8.10;2.40;;;5.60;99.90;;;;;;5095226;27;20295;-53
2024/01/24 00:59:51;;;;;;;9.33;3.10;;;5.70;99.90;;;;;;5099942;27;20207;-53
2024/01/24 01:02:17;;;;;;;8.10;2.63;;;5.70;99.90;;;;;;5098456;27;20728;-53
2024/01/24 01:04:43;;;;;;;9.27;3.17;;;5.70;99.90;;;;;;5099328;27;20775;-53
2024/01/24 01:07:09;;;;;;;6.50;2.47;;;5.80;99.90;;;;;;5097531;27;20192;-53
2024/01/24 01:09:35;;;;;;;4.97;2.63;;;5.80;99.90;;;;;;5098711;27;20208;-53
2024/01/24 01:12:01;;;;;;;6.40;2.40;;;5.80;99.90;;;;;;5081436;28;20275;-53
2024/01/24 01:14:27;;;;;;;6.07;2.63;;;5.90;99.90;;;;;;5103417;27;20669;-52
2024/01/24 01:16:53;;;;;;;6.13;2.73;;;5.90;99.90;;;;;;5100910;27;20311;-52
2024/01/24 01:19:19;;;;;;;4.83;2.50;;;5.90;99.90;;;;;;5078688;27;20721;-52
2024/01/24 01:21:44;;;;;;;5.97;2.43;;;5.90;99.90;;;;;;5097976;27;20200;-53
2024/01/24 01:24:10;;;;;;;5.40;2.60;;;6.00;99.90;;;;;;5079747;27;20187;-53
2024/01/24 01:26:35;;;;;;;4.47;1.67;;;6.00;99.90;;;;;;5099808;27;20272;-53
2024/01/24 01:29:01;;;;;;;7.30;2.67;;;6.10;99.90;;;;;;5104481;27;20996;-52
2024/01/24 01:31:27;;;;;;;4.67;2.10;;;6.10;99.90;;;;;;5096930;27;20220;-55
2024/01/24 01:33:53;;;;;;;2.60;1.90;;;6.20;99.90;;;;;;5100610;27;20552;-53
2024/01/24 01:36:19;;;;;;;3.20;2.37;;;6.20;99.90;;;;;;5101410;27;20200;-52
2024/01/24 01:38:44;;;;;;;3.97;1.93;;;6.30;99.90;;;;;;5097828;27;20730;-53
2024/01/24 01:41:10;;;;;;;3.67;2.40;;;6.30;99.90;;;;;;5098914;27;20199;-53
2024/01/24 01:43:35;;;;;;;1.93;1.63;;;6.30;99.90;;;;;;5083430;28;20185;-53
2024/01/24 01:46:06;;;;;;;2.70;2.17;;;6.30;99.90;;;;;;5079931;28;20204;-53
2024/01/24 01:48:33;;;;;;;4.73;1.70;;;6.30;99.90;;;;;;5096544;28;20193;-52
2024/01/24 01:50:59;;;;;;;2.37;2.13;;;6.30;99.90;;;;;;5076263;28;20223;-53
2024/01/24 01:53:26;;;;;;;2.77;2.17;;;6.40;99.90;;;;;;5090789;28;20455;-52
2024/01/24 01:55:52;;;;;;;1.90;1.80;;;6.30;99.90;;;;;;5102942;27;20272;-54
2024/01/24 01:58:18;;;;;;;2.30;2.10;;;6.40;99.90;;;;;;5078975;28;20197;-52
2024/01/24 02:00:46;;;;;;;5.13;2.30;;;6.40;99.90;;;;;;5099777;28;20200;-52
2024/01/24 02:03:12;;;;;;;3.53;2.40;;;6.40;99.90;;;;;;5100373;28;20196;-53
2024/01/24 02:05:39;;;;;;;3.93;2.63;;;6.40;99.90;;;;;;5099047;28;20212;-54
2024/01/24 02:08:05;;;;;;;3.60;2.23;;;6.40;99.90;;;;;;5092227;28;20192;-56
2024/01/24 02:10:30;;;;;;;4.03;1.97;;;6.50;99.90;;;;;;5094902;28;20199;-58
2024/01/24 02:12:56;;;;;;;3.23;2.13;;;6.50;99.90;;;;;;5067797;28;20204;-55
2024/01/24 02:15:21;;;;;;;4.03;2.07;;;6.50;99.90;;;;;;5093400;28;20224;-55
2024/01/24 02:17:47;;;;;;;5.73;2.30;;;6.60;99.90;;;;;;5075139;28;20197;-54
2024/01/24 02:20:13;;;;;;;3.07;1.77;;;6.50;99.90;;;;;;5073370;28;20747;-53
2024/01/24 02:22:39;;;;;;;3.13;1.70;;;6.60;99.90;;;;;;5095916;28;20710;-53
2024/01/24 02:25:05;;;;;;;1.90;1.77;;;6.60;99.90;;;;;;5099154;27;20211;-53
2024/01/24 02:27:30;;;;;;;3.50;1.90;;;6.60;99.90;;;;;;5090842;28;20201;-53
2024/01/24 02:29:59;;;;;;;3.73;2.47;;;6.60;99.90;;;;;;5097530;27;20212;-52
2024/01/24 02:32:25;;;;;;;2.10;1.80;;;6.70;99.90;;;;;;5093977;27;20211;-52
2024/01/24 02:34:50;;;;;;;3.47;1.90;;;6.70;99.90;;;;;;5099066;27;20201;-53
2024/01/24 02:37:16;;;;;;;2.47;1.90;;;6.70;99.90;;;;;;5076370;28;20557;-53
2024/01/24 02:39:41;;;;;;;5.20;2.37;;;6.80;99.90;;;;;;5098663;27;20684;-53
2024/01/24 02:42:08;;;;;;;2.37;2.17;;;6.80;99.90;;;;;;5092557;27;20204;-55
2024/01/24 02:44:34;;;;;;;3.80;2.17;;;6.80;99.90;;;;;;5098114;27;20236;-57
2024/01/24 02:46:59;;;;;;;2.13;1.60;;;6.80;99.90;;;;;;5108961;27;20254;-53
2024/01/24 02:49:25;;;;;;;3.00;2.23;;;6.90;99.90;;;;;;5102348;27;20225;-58
2024/01/24 02:51:50;;;;;;;4.23;1.83;;;6.90;99.90;;;;;;5104731;27;20224;-56
2024/01/24 02:54:16;;;;;;;3.87;1.70;;;7.00;99.90;;;;;;5084881;27;20227;-59
2024/01/24 02:56:42;;;;;;;2.30;1.70;;;7.00;99.90;;;;;;5085185;28;20215;-59
2024/01/24 02:59:07;;;;;;;3.93;1.80;;;7.00;99.90;;;;;;5100164;27;20618;-61
2024/01/24 03:01:33;;;;;;;2.83;1.70;;;7.10;99.90;;;;;;5098033;27;20283;-61
2024/01/24 03:03:58;;;;;;;2.40;1.53;;;7.10;99.90;;;;;;5104965;27;20197;-59
2024/01/24 03:06:24;;;;;;;1.70;1.60;;;7.10;99.90;;;;;;5106490;27;20200;-61
2024/01/24 03:08:51;;;;;;;2.40;1.20;;;7.20;99.90;;;;;;5099224;27;20413;-53
2024/01/24 03:11:17;;;;;;;3.03;2.13;;;7.30;99.90;;;;;;5106545;27;20219;-53
2024/01/24 03:13:44;;;;;;;1.60;1.20;;;7.30;99.90;;;;;;5101352;27;20545;-53
2024/01/24 03:16:09;;;;;;;5.87;1.80;;;7.40;99.90;;;;;;5082779;27;20310;-52
2024/01/24 03:18:37;;;;;;;2.73;1.70;;;7.40;99.90;;;;;;5103674;27;20280;-52
2024/01/24 03:21:03;;;;;;;3.70;1.20;;;7.50;99.90;;;;;;5092629;27;20359;-53
2024/01/24 03:23:29;;;;;;;3.13;1.50;;;7.50;99.90;;;;;;5091970;27;20197;-53
2024/01/24 03:25:54;;;;;;;3.00;1.30;;;7.50;99.90;;;;;;5091975;27;20195;-53
2024/01/24 03:28:20;;;;;;;1.53;1.23;;;7.50;99.90;;;;;;5095080;27;20281;-53
2024/01/24 03:30:45;;;;;;;1.30;1.07;;;7.60;99.90;;;;;;5096462;27;20695;-54
2024/01/24 03:33:11;;;;;;;2.70;1.47;;;7.70;99.90;;;;;;5095582;27;20200;-52
2024/01/24 03:35:36;;;;;;;0.97;0.93;;;7.70;99.90;;;;;;5094745;27;20812;-53
2024/01/24 03:38:04;;;;;;;2.83;1.20;;;7.70;99.90;;;;;;5098087;27;20698;-53
2024/01/24 03:40:30;;;;;;;1.40;1.30;;;7.80;99.90;;;;;;5098834;27;20189;-52
2024/01/24 03:42:56;;;;;;;1.60;1.23;;;7.80;99.90;;;;;;5096516;27;20234;-55
2024/01/24 03:45:22;;;;;;;4.40;1.07;;;7.90;99.90;;;;;;5096250;27;20270;-55
2024/01/24 03:47:51;;;;;;;4.33;1.40;;;7.90;99.90;;;;;;5098263;27;20211;-55
2024/01/24 03:50:17;;;;;;;5.03;1.17;;;7.90;99.90;;;;;;5099247;27;20670;-53
2024/01/24 03:52:42;;;;;;;3.47;1.40;;;8.00;99.90;;;;;;5095596;27;20212;-55
2024/01/24 03:55:08;;;;;;;4.03;1.63;;;8.00;99.90;;;;;;5096143;27;20254;-54
2024/01/24 03:57:33;;;;;;;1.20;1.10;;;8.00;99.90;;;;;;5091107;27;20204;-53
2024/01/24 03:59:59;;;;;;;1.20;1.10;;;8.00;99.90;;;;;;5094652;27;20192;-56
2024/01/24 04:02:24;;;;;;;2.30;1.20;;;8.10;99.90;;;;;;5097111;27;20566;-53
2024/01/24 04:04:50;;;;;;;2.70;1.63;;;8.20;99.90;;;;;;5097486;27;20777;-53
2024/01/24 04:07:15;;;;;;;5.57;1.27;;;8.30;99.90;;;;;;5099906;27;20192;-53
2024/01/24 04:09:42;;;;;;;3.07;1.13;;;8.30;99.90;;;;;;5094389;27;20506;-53
2024/01/24 04:12:08;;;;;;;1.40;1.10;;;8.30;99.90;;;;;;5096239;27;20871;-53
2024/01/24 04:14:33;;;;;;;2.87;1.20;;;8.30;99.90;;;;;;5095927;27;20254;-52
2024/01/24 04:16:59;;;;;;;2.83;1.30;;;8.40;99.90;;;;;;5095596;27;20672;-53
2024/01/24 04:19:24;;;;;;;3.23;1.07;;;8.40;99.90;;;;;;5077245;28;20242;-55
2024/01/24 04:21:50;;;;;;;1.33;0.97;;;8.40;99.90;;;;;;5093160;27;20208;-53
2024/01/24 04:24:16;;;;;;;3.80;1.67;;;8.50;99.90;;;;;;5095093;27;20199;-53
2024/01/24 04:26:42;;;;;;;2.00;1.00;;;8.50;99.90;;;;;;5097018;27;20749;-53
2024/01/24 04:29:07;;;;;;;1.33;1.27;;;8.60;99.90;;;;;;5095838;27;20204;-57
2024/01/24 04:31:33;;;;;;;1.70;1.33;;;8.70;99.90;;;;;;5094061;27;20211;-53
2024/01/24 04:33:58;;;;;;;1.40;0.90;;;8.70;99.90;;;;;;5098905;27;20257;-54
2024/01/24 04:36:24;;;;;;;1.47;1.13;;;8.70;99.90;;;;;;5103107;27;20701;-53
2024/01/24 04:38:49;;;;;;;2.67;1.27;;;8.80;99.90;;;;;;5096817;27;20221;-53
2024/01/24 04:41:15;;;;;;;1.33;1.20;;;8.80;99.90;;;;;;5101829;27;20280;-52
2024/01/24 04:43:40;;;;;;;2.57;1.00;;;8.90;99.90;;;;;;5080516;27;20299;-52
2024/01/24 04:46:15;;;;;;;3.33;1.53;;;9.00;99.90;;;;;;5100811;27;20204;-53
2024/01/24 04:48:43;;;;;;;1.17;1.07;;;9.00;99.90;;;;;;5101473;27;20196;-53
2024/01/24 04:51:10;;;;;;;2.07;1.10;;;9.00;99.90;;;;;;5096521;27;20213;-54
2024/01/24 04:53:36;;;;;;;2.90;1.50;;;9.10;99.90;;;;;;5097221;27;20212;-51
2024/01/24 04:56:02;;;;;;;4.87;1.53;;;9.20;99.90;;;;;;5097416;27;20594;-51
2024/01/24 04:58:28;;;;;;;1.87;0.80;;;9.20;99.90;;;;;;5095959;27;20911;-51
2024/01/24 05:00:53;;;;;;;2.03;1.40;;;9.30;99.90;;;;;;5110162;27;20204;-53
2024/01/24 05:03:19;;;;;;;3.57;1.47;;;9.30;99.90;;;;;;5100538;27;20196;-52
2024/01/24 05:05:44;;;;;;;1.17;0.97;;;9.40;99.90;;;;;;5095157;27;20698;-52
2024/01/24 05:08:10;;;;;;;4.40;1.53;;;9.40;99.90;;;;;;5102416;27;20200;-53
2024/01/24 05:10:35;;;;;;;4.17;1.40;;;9.50;99.90;;;;;;5108206;27;20209;-53
2024/01/24 05:13:01;;;;;;;1.50;0.87;;;9.40;99.90;;;;;;5096241;27;20660;-53
2024/01/24 05:15:26;;;;;;;0.70;0.70;;;9.50;99.90;;;;;;5100915;27;20663;-53
2024/01/24 05:17:52;;;;;;;1.33;1.00;;;9.50;99.90;;;;;;5098862;27;20192;-53
2024/01/24 05:20:17;;;;;;;4.80;1.20;;;9.60;99.90;;;;;;5066328;27;20621;-52
2024/01/24 05:22:43;;;;;;;1.17;1.07;;;9.60;99.90;;;;;;5096409;27;20200;-52
2024/01/24 05:25:09;;;;;;;2.43;1.23;;;9.60;99.90;;;;;;5104009;27;20218;-53
2024/01/24 05:27:35;;;;;;;3.50;1.43;;;9.70;99.90;;;;;;5095154;27;20192;-53
2024/01/24 05:30:01;;;;;;;1.50;1.23;;;9.70;99.90;;;;;;5104373;27;20269;-53
2024/01/24 05:32:26;;;;;;;5.13;1.30;;;9.70;99.90;;;;;;5097921;27;20280;-53
2024/01/24 05:34:52;;;;;;;3.50;1.13;;;9.80;99.90;;;;;;5103141;27;20886;-54
2024/01/24 05:37:18;;;;;;;3.10;1.53;;;9.80;99.90;;;;;;5101777;27;20613;-62
2024/01/24 05:39:43;;;;;;;1.33;1.13;;;9.80;99.90;;;;;;5080073;28;20561;-54
2024/01/24 05:42:09;;;;;;;1.70;1.53;;;9.80;99.90;;;;;;5102398;27;20196;-53
2024/01/24 05:44:34;;;;;;;6.40;1.30;;;9.80;99.90;;;;;;5102521;27;20197;-53
2024/01/24 05:47:00;;;;;;;1.17;0.70;;;9.80;99.90;;;;;;5091609;28;20588;-53
2024/01/24 05:49:26;;;;;;;5.90;1.20;;;9.80;99.90;;;;;;5097108;28;20243;-54
2024/01/24 05:51:52;;;;;;;3.73;1.03;;;9.90;99.90;;;;;;5094999;28;20676;-52
2024/01/24 05:54:17;;;;;;;4.03;1.33;;;9.90;99.90;;;;;;5102547;27;20283;-52
2024/01/24 05:56:43;;;;;;;3.10;2.43;;;9.90;99.90;;;;;;5098278;28;20723;-53
2024/01/24 05:59:09;;;;;;;2.20;1.20;;;9.80;99.90;;;;;;5099124;27;20204;-52
2024/01/24 06:01:34;;;;;;;1.83;1.00;;;9.80;99.90;;;;;;5097072;27;20192;-53
2024/01/24 06:04:00;;;;;;;3.13;1.43;;;9.80;99.90;;;;;;5101383;27;20666;-53
2024/01/24 06:06:25;;;;;;;3.13;1.47;;;9.80;99.90;;;;;;5100501;27;20192;-53
2024/01/24 06:08:51;;;;;;;2.23;1.43;;;9.80;99.90;;;;;;5099438;27;20249;-53
2024/01/24 06:11:17;;;;;;;2.23;1.47;;;9.70;99.90;;;;;;5097597;27;20298;-53
2024/01/24 06:13:43;;;;;;;1.77;1.17;;;9.70;99.90;;;;;;5097927;28;21067;-52
2024/01/24 06:16:09;;;;;;;3.33;2.50;;;9.60;99.90;;;;;;5095506;27;20196;-53
2024/01/24 06:18:34;;;;;;;2.13;1.03;;;9.60;99.90;;;;;;5080513;28;20280;-54
2024/01/24 06:21:01;;;;;;;2.60;1.47;;;9.70;99.90;;;;;;5095455;27;20285;-52
2024/01/24 06:23:26;;;;;;;1.20;1.10;;;9.70;99.90;;;;;;5073079;28;20731;-53
2024/01/24 06:25:52;;;;;;;4.43;1.20;;;9.80;99.90;;;;;;5097689;28;20619;-53
2024/01/24 06:28:17;;;;;;;3.83;1.00;;;9.80;99.90;;;;;;5095208;28;20201;-53
2024/01/24 06:30:43;;;;;;;3.10;1.10;;;9.90;99.90;;;;;;5080945;27;20223;-52
2024/01/24 06:33:08;;;;;;;2.33;1.10;;;9.90;99.90;;;;;;5078866;28;20204;-52
2024/01/24 06:35:34;;;;;;;1.83;1.03;;;9.90;99.90;;;;;;5102035;27;20872;-53
2024/01/24 06:38:01;;;;;;;0.87;0.87;;;9.90;99.90;;;;;;5098085;27;20866;-53
2024/01/24 06:40:26;;;;;;;3.00;0.90;;;9.90;99.90;;;;;;5107892;27;20188;-53
2024/01/24 06:42:52;;;;;;;2.57;0.80;;;10.00;99.90;;;;;;5083534;28;20280;-52
2024/01/24 06:45:17;;;;;;;1.60;1.00;;;10.00;99.90;;;;;;5104106;27;20287;-52
2024/01/24 06:47:43;;;;;;;1.57;0.90;;;10.10;99.90;;;;;;5105426;27;20181;-53
2024/01/24 06:50:13;;;;;;;1.03;0.70;;;10.10;99.90;;;;;;5097425;27;20210;-52
2024/01/24 06:52:39;;;;;;;1.03;0.93;;;10.20;99.90;;;;;;5099417;28;20197;-53
2024/01/24 06:55:05;;;;;;;3.57;1.17;;;10.20;99.90;;;;;;5092373;27;20201;-61
2024/01/24 06:57:30;;;;;;;1.00;1.00;;;10.10;99.90;;;;;;5114723;27;20177;-57
2024/01/24 06:59:55;;;;;;;3.17;1.23;;;10.00;99.90;;;;;;5102130;27;20266;-52
2024/01/24 07:02:21;;;;;;;2.73;1.07;;;9.80;99.90;;;;;;5101184;28;20536;-54
2024/01/24 07:04:46;;;;;;;4.83;1.43;;;9.30;99.90;;;;;;5099306;27;20232;-53
2024/01/24 07:07:12;;;;;;;3.10;1.30;;;9.10;99.90;;;;;;5103081;27;20199;-53
2024/01/24 07:09:38;;;;;;;7.70;1.57;;;9.00;99.90;;;;;;5083283;28;20723;-53
2024/01/24 07:12:04;;;;;;;5.50;1.90;;;9.00;99.90;;;;;;5095567;28;20214;-53
2024/01/24 07:14:29;;;;;;;6.27;2.10;;;9.10;99.90;;;;;;5079762;28;20764;-53
2024/01/24 07:16:55;;;;;;;9.70;2.97;;;9.00;99.90;;;;;;5095845;27;20185;-53
2024/01/24 07:19:20;;;;;;;9.50;3.10;;;9.10;99.90;;;;;;5105170;27;20793;-53
2024/01/24 07:21:47;;;;;;;9.47;2.73;;;9.10;99.90;;;;;;5106291;27;20564;-54
2024/01/24 07:24:13;;;;;;;9.10;1.47;;;9.30;99.90;;;;;;5083285;28;20194;-54
2024/01/24 07:26:39;;;;;;;8.87;2.53;;;9.30;99.90;;;;;;5098180;27;20217;-53
2024/01/24 07:29:04;;;;;;;6.57;2.17;;;9.30;99.90;;;;;;5092798;28;20240;-53
2024/01/24 07:31:30;;;;;;;8.00;2.77;;;9.50;99.90;;;;;;5074435;28;20258;-54
2024/01/24 07:33:55;;;;;;;10.53;2.40;;;9.50;99.90;;;;;;5114453;27;20204;-53
2024/01/24 07:36:21;;;;;;;9.03;2.10;;;9.50;99.90;;;;;;5091916;28;20624;-52
2024/01/24 07:38:47;;;;;;;12.30;2.73;;;9.60;99.90;;;;;;5119678;27;20657;-52
2024/01/24 07:41:12;;;;;;;7.33;2.30;;;9.60;99.90;;;;;;5100713;27;20249;-53
2024/01/24 07:43:39;;;;;;;8.27;2.20;;;9.60;99.90;;;;;;5107654;27;20620;-53
2024/01/24 07:46:04;;;;;;;11.63;3.03;;;9.60;99.90;;;;;;5096003;28;20647;-53
2024/01/24 07:48:31;;;;;;;7.40;2.57;;;9.70;99.90;;;;;;5105629;27;20223;-53
2024/01/24 07:50:56;;;;;;;16.67;2.67;;;9.60;99.90;;;;;;5092142;28;20295;-54
2024/01/24 07:53:23;;;;;;;7.73;2.77;;;9.50;99.90;;;;;;5097577;27;20295;-53
2024/01/24 07:55:49;;;;;;;8.80;2.80;;;9.60;99.90;;;;;;5102306;27;20780;-52
2024/01/24 07:58:14;;;;;;;11.83;2.97;;;9.60;99.90;;;;;;5090953;27;20200;-54
2024/01/24 08:00:40;;;;;;;8.80;2.50;;;9.60;99.90;;;;;;5075500;28;20176;-52
2024/01/24 08:03:07;;;;;;;12.40;2.30;;;9.60;99.90;;;;;;5114296;27;20747;-53
2024/01/24 08:05:33;;;;;;;7.77;2.47;;;9.60;99.90;;;;;;5096226;28;20224;-52
2024/01/24 08:08:01;;;;;;;6.37;2.20;;;9.60;99.90;;;;;;5103515;27;20284;-52
2024/01/24 08:10:27;;;;;;;8.27;2.80;;;9.50;99.90;;;;;;5072433;28;20229;-52
2024/01/24 08:12:53;;;;;;;10.47;2.80;;;9.60;99.90;;;;;;5107572;27;20198;-52
2024/01/24 08:15:19;;;;;;;13.97;3.23;;;9.70;99.90;;;;;;5096778;27;20177;-52
2024/01/24 08:17:45;;;;;;;11.70;2.90;;;9.70;99.90;;;;;;5104152;27;20680;-52
2024/01/24 08:20:11;;;;;;;11.53;2.50;;;9.70;99.90;;;;;;5074611;28;20237;-52
2024/01/24 08:22:37;;;;;;;10.13;2.63;;;9.80;99.90;;;;;;5096209;27;20192;-52
2024/01/24 08:25:03;;;;;;;9.27;2.97;;;9.80;99.90;;;;;;5104518;27;20196;-52
2024/01/24 08:27:29;;;;;;;9.07;2.33;;;9.80;99.90;;;;;;5089364;28;20287;-53
2024/01/24 08:29:54;;;;;;;8.97;2.37;;;9.80;99.90;;;;;;5103285;27;20633;-53
2024/01/24 08:32:20;;;;;;;10.77;2.47;;;9.80;99.90;;;;;;5096840;27;20194;-52
2024/01/24 08:34:45;;;;;;;13.47;2.43;;;9.80;99.90;;;;;;5104467;27;20212;-52
2024/01/24 08:37:12;;;;;;;5.83;2.33;;;9.80;99.90;;;;;;5098300;27;20201;-53
2024/01/24 08:39:39;;;;;;;11.40;1.97;;;9.80;99.90;;;;;;5092568;27;20272;-53
2024/01/24 08:42:05;;;;;;;6.80;2.43;;;9.90;99.90;;;;;;5115554;27;20201;-53
2024/01/24 08:44:30;;;;;;;7.03;2.00;;;10.00;99.90;;;;;;5100999;27;20189;-52
2024/01/24 08:46:56;;;;;;;6.50;1.80;;;10.00;99.90;;;;;;5097089;27;20566;-52
2024/01/24 08:49:21;;;;;;;5.10;2.00;;;9.90;99.90;;;;;;5094472;27;20250;-57
2024/01/24 08:51:47;;;;;;;10.57;2.47;;;9.90;99.90;;;;;;5105380;27;20228;-53
2024/01/24 08:54:13;;;;;;;7.87;2.33;;;9.80;99.90;;;;;;5102946;27;20289;-53
2024/01/24 08:56:39;;;;;;;7.43;2.07;;;9.70;99.90;;;;;;5112436;27;20323;-54
2024/01/24 08:59:04;;;;;;;8.20;2.23;;;9.60;99.90;;;;;;5099105;27;20226;-53
2024/01/24 09:01:30;;;;;;;12.93;3.20;;;9.60;99.90;;;;;;5099243;27;20193;-53
2024/01/24 09:03:56;;;;;;;10.20;2.93;;;9.50;99.90;;;;;;5119377;27;20203;-53
2024/01/24 09:06:22;;;;;;;6.07;1.87;;;9.40;99.90;;;;;;5078071;28;20243;-53
2024/01/24 09:08:51;;;;;;;13.57;3.33;;;9.50;99.90;;;;;;5119354;27;20193;-52
2024/01/24 09:11:17;;;;;;;9.60;2.80;;;9.10;99.90;;;;;;5082623;28;20221;-53
2024/01/24 09:13:43;;;;;;;10.57;3.00;;;9.00;99.90;;;;;;5110658;27;20753;-54
2024/01/24 09:16:09;;;;;;;7.83;3.10;;;8.90;99.90;;;;;;5105044;27;20219;-54
2024/01/24 09:18:34;;;;;;;11.23;2.77;;;9.00;99.90;;;;;;5117448;27;20264;-53
2024/01/24 09:21:00;;;;;;;13.00;2.23;;;9.10;99.90;;;;;;5102145;27;20570;-52
2024/01/24 09:23:25;;;;;;;9.70;2.60;;;9.20;99.90;;;;;;5103271;27;20857;-54
2024/01/24 09:25:51;;;;;;;7.53;2.80;;;9.30;99.90;;;;;;5095600;27;20288;-53
2024/01/24 09:28:16;;;;;;;7.33;2.23;;;9.40;99.90;;;;;;5081622;28;20191;-53
2024/01/24 09:30:42;;;;;;;8.43;2.27;;;9.50;99.90;;;;;;5078277;28;20274;-53
2024/01/24 09:33:08;;;;;;;7.73;2.93;;;9.80;99.90;;;;;;5077868;28;20623;-53
2024/01/24 09:35:34;;;;;;;7.93;2.33;;;9.80;99.90;;;;;;5089169;28;20640;-63
2024/01/24 09:38:00;;;;;;;7.00;2.50;;;9.80;99.90;;;;;;5100433;27;20244;-54
2024/01/24 09:40:25;;;;;;;13.07;2.90;;;9.90;99.90;;;;;;5096765;27;20983;-54
2024/01/24 09:42:51;;;;;;;4.57;1.80;;;9.90;99.90;;;;;;5112059;27;20241;-53
2024/01/24 09:45:17;;;;;;;11.00;2.53;;;9.90;99.90;;;;;;5108202;27;20190;-62
2024/01/24 09:47:45;;;;;;;11.23;3.60;;;10.00;99.90;;;;;;5081854;28;20605;-59
2024/01/24 09:50:11;;;;;;;10.80;2.80;;;10.20;99.90;;;;;;5099670;28;20239;-52
2024/01/24 09:52:38;;;;;;;11.47;2.60;;;10.20;99.90;;;;;;5086509;28;20232;-54
2024/01/24 09:55:06;;;;;;;10.10;2.83;;;10.20;99.90;;;;;;5083414;28;20208;-58
2024/01/24 09:57:33;;;;;;;5.70;2.10;;;10.20;99.90;;;;;;5082309;28;20291;-53
2024/01/24 09:59:59;;;;;;;7.70;2.40;;;10.30;99.90;;;;;;5080679;28;20207;-51
2024/01/24 10:02:28;;;;;;;6.73;2.17;;;10.20;99.90;;;;;;5082661;28;20194;-52
2024/01/24 10:04:54;;;;;;;5.53;1.70;;;10.20;99.90;;;;;;5095997;28;20797;-52
2024/01/24 10:07:20;;;;;;;9.20;2.57;;;10.30;99.90;;;;;;5093180;28;20245;-53
2024/01/24 10:10:07;;;;;;;10.03;2.50;;;10.40;99.90;;;;;;5091223;28;20224;-53
2024/01/24 10:12:32;;;;;;;9.70;2.30;;;10.40;99.90;;;;;;5070964;28;20219;-53
2024/01/24 10:14:58;;;;;;;13.27;2.63;;;10.40;99.90;;;;;;5091700;28;20674;-53
2024/01/24 10:17:23;;;;;;;8.13;3.13;;;10.50;99.90;;;;;;5091596;28;20185;-53
2024/01/24 10:19:50;;;;;;;11.77;2.73;;;10.50;99.90;;;;;;5093394;28;20212;-55
2024/01/24 10:22:16;;;;;;;6.30;2.70;;;10.50;99.90;;;;;;5094106;28;20197;-56
2024/01/24 10:24:41;;;;;;;10.07;2.43;;;10.40;99.90;;;;;;5090178;28;20253;-56
2024/01/24 10:27:08;;;;;;;11.30;3.30;;;10.50;99.90;;;;;;5091137;28;20196;-54
2024/01/24 10:29:34;;;;;;;14.17;3.33;;;10.50;99.90;;;;;;5096847;28;20198;-54
2024/01/24 10:32:01;;;;;;;5.77;1.83;;;10.60;99.90;;;;;;5090224;28;20199;-54
2024/01/24 10:34:27;;;;;;;6.97;2.70;;;11.10;99.90;;;;;;5097202;28;20295;-55
2024/01/24 10:36:53;;;;;;;14.70;4.17;;;11.30;99.90;;;;;;5100137;28;20249;-54
2024/01/24 10:39:22;;;;;;;8.77;2.43;;;11.50;99.90;;;;;;5092972;28;20205;-54
2024/01/24 10:41:51;;;;;;;13.20;2.60;;;11.50;99.90;;;;;;5093735;28;20607;-54
2024/01/24 10:44:19;;;;;;;12.57;3.57;;;11.60;99.90;;;;;;5091391;28;20846;-55
2024/01/24 10:46:45;;;;;;;9.80;3.43;;;11.90;99.90;;;;;;5090815;28;20195;-56
2024/01/24 10:49:12;;;;;;;11.90;3.10;;;12.00;99.90;;;;;;5095736;27;20307;-54
2024/01/24 10:51:38;;;;;;;16.00;3.53;;;11.60;99.90;;;;;;5088228;28;20757;-54
2024/01/24 10:54:06;;;;;;;12.53;3.80;;;11.80;99.90;;;;;;5095305;28;20338;-55
2024/01/24 10:56:32;;;;;;;13.63;3.83;;;11.70;99.90;;;;;;5099890;27;20230;-53
2024/01/24 10:59:01;;;;;;;13.60;3.30;;;11.70;99.90;;;;;;5095060;27;20194;-57
2024/01/24 11:01:27;;;;;;;10.90;2.83;;;11.90;99.90;;;;;;5098462;27;20196;-57
2024/01/24 11:03:53;;;;;;;11.50;4.03;;;11.80;99.90;;;;;;5093515;27;20539;-57
2024/01/24 11:06:22;;;;;;;16.33;3.73;;;11.60;99.90;;;;;;5079642;27;20562;-52
2024/01/24 11:09:20;;;;;;;12.20;3.50;;;11.80;99.90;;;;;;5096855;27;20294;-53
2024/01/24 11:11:47;;;;;;;13.50;3.20;;;11.60;99.90;;;;;;5096192;27;20293;-55
2024/01/24 11:14:12;;;;;;;12.73;3.43;;;11.60;99.90;;;;;;5096053;27;20182;-59
2024/01/24 11:16:39;;;;;;;11.50;3.23;;;11.70;99.90;;;;;;5095122;27;20202;-63
2024/01/24 11:19:22;;;;;;;10.53;3.47;;;11.50;99.90;;;;;;5094474;27;20975;-57
2024/01/24 11:21:49;;;;;;;9.97;2.70;;;11.60;99.90;;;;;;5097195;27;20214;-53
2024/01/24 11:24:40;;;;;;;13.03;4.20;;;11.70;99.90;;;;;;5076882;28;20296;-55
2024/01/24 11:27:23;;;;;;;12.10;3.33;;;11.80;99.90;;;;;;5091255;27;20561;-55
2024/01/24 11:29:50;;;;;;;14.77;3.87;;;11.80;99.90;;;;;;5090301;28;20375;-53
2024/01/24 11:32:43;;;;;;;9.23;3.43;;;11.60;99.90;;;;;;5099754;27;20518;-54
2024/01/24 11:35:28;;;;;;;12.73;3.40;;;11.60;99.90;;;;;;5092537;27;20230;-53
2024/01/24 11:37:55;;;;;;;13.77;2.87;;;11.60;99.90;;;;;;5099124;27;20284;-54
2024/01/24 11:40:23;;;;;;;12.67;2.50;;;12.00;99.90;;;;;;5097782;27;20251;-54
2024/01/24 11:42:56;;;;;;;13.30;4.13;;;11.90;99.90;;;;;;5090089;28;20247;-54
2024/01/24 11:45:23;;;;;;;9.67;3.23;;;11.70;99.90;;;;;;5093875;27;20305;-54
2024/01/24 11:47:49;;;;;;;9.70;3.47;;;11.60;99.90;;;;;;5102001;27;20254;-54
2024/01/24 11:50:15;;;;;;;12.27;3.23;;;11.90;99.90;;;;;;5074252;28;20211;-53
2024/01/24 11:52:41;;;;;;;8.93;3.23;;;11.70;99.90;;;;;;5102438;27;20253;-57
2024/01/24 11:55:07;;;;;;;15.33;3.83;;;11.90;99.90;;;;;;5102407;27;20269;-55
2024/01/24 11:57:33;;;;;;;7.80;2.93;;;12.00;99.90;;;;;;5094268;27;20200;-58
2024/01/24 11:59:59;;;;;;;12.43;3.30;;;12.10;99.90;;;;;;5091699;27;20744;-61
2024/01/24 12:02:24;;;;;;;6.10;2.43;;;12.00;99.90;;;;;;5079063;28;20203;-53
2024/01/24 12:04:50;;;;;;;9.87;2.97;;;11.80;99.90;;;;;;5098681;27;20198;-52
2024/01/24 12:07:17;;;;;;;8.83;3.13;;;11.50;99.90;;;;;;5094556;27;20194;-55
2024/01/24 12:09:42;;;;;;;13.10;3.40;;;11.40;99.90;;;;;;5093170;27;21313;-53
2024/01/24 12:12:10;;;;;;;5.60;2.30;;;11.30;99.90;;;;;;5092521;27;20201;-52
2024/01/24 12:14:36;;;;;;;9.90;3.20;;;11.30;99.90;;;;;;5098723;27;20196;-60
2024/01/24 12:17:02;;;;;;;12.97;2.93;;;11.20;99.90;;;;;;5094529;27;20201;-62
2024/01/24 12:19:29;;;;;;;13.70;2.97;;;11.20;99.90;;;;;;5098186;27;20385;-60
2024/01/24 12:21:55;;;;;;;11.53;2.83;;;11.10;99.90;;;;;;5091279;27;20849;-52
2024/01/24 12:24:21;;;;;;;11.33;3.63;;;11.10;99.90;;;;;;5081144;28;20288;-54
2024/01/24 12:26:46;;;;;;;11.47;3.30;;;11.10;99.90;;;;;;5093838;28;20206;-52
2024/01/24 12:29:12;;;;;;;16.23;3.03;;;11.00;99.90;;;;;;5090751;27;20201;-53
2024/01/24 12:31:40;;;;;;;11.60;3.57;;;10.90;99.90;;;;;;5094652;27;20218;-53
2024/01/24 12:34:08;;;;;;;16.13;2.90;;;10.90;99.90;;;;;;5093542;27;20199;-53
2024/01/24 12:36:34;;;;;;;15.60;3.17;;;10.90;99.90;;;;;;5094842;27;20193;-53
2024/01/24 12:38:59;;;;;;;10.60;3.83;;;10.90;99.90;;;;;;5091069;28;20196;-53
2024/01/24 12:41:25;;;;;;;14.67;3.40;;;10.80;99.90;;;;;;5077019;28;20197;-53
2024/01/24 12:43:50;;;;;;;14.73;3.63;;;10.80;99.90;;;;;;5100594;27;20279;-53
2024/01/24 12:46:16;;;;;;;8.63;3.53;;;10.90;99.90;;;;;;5093056;28;20718;-54
2024/01/24 12:48:44;;;;;;;19.03;4.17;;;10.90;99.90;;;;;;5092574;28;20283;-53